Time;durP1;ratioP1;P1;durP2;ratioP2;P2;SDS_P1;SDS_P2;PMS_P1;PMS_P2;Temp;Humidity;BMP_temperature;BMP_pressure;BME280_temperature;BME280_humidity;BME280_pressure;Samples;Min_cycle;Max_cycle;Signal;HPM_P1;HPM_P2
2021/03/23 00:01:50;;;;;;;8.07;3.37;;;;;;;-0.69;57.64;98912.17;117909;1208;22867;-62
2021/03/23 00:04:18;;;;;;;7.97;3.33;;;;;;;-0.74;57.92;98917.33;118079;1209;22958;-62
2021/03/23 00:06:46;;;;;;;5.87;2.70;;;;;;;-0.76;57.84;98922.05;115254;1209;23121;-62
2021/03/23 00:09:16;;;;;;;9.03;2.53;;;;;;;-0.81;57.84;98919.95;117919;1205;24005;-62
2021/03/23 00:11:44;;;;;;;9.40;2.95;;;;;;;-0.84;57.99;98928.38;117814;1204;22916;-62
2021/03/23 00:14:13;;;;;;;6.77;2.97;;;;;;;-0.87;58.67;98923.45;118043;1205;22808;-62
2021/03/23 00:16:42;;;;;;;5.00;2.60;;;;;;;-0.89;58.76;98921.99;117959;1208;22902;-62
2021/03/23 00:19:10;;;;;;;8.43;3.83;;;;;;;-0.89;58.21;98927.34;117798;1205;22942;-62
2021/03/23 00:21:38;;;;;;;7.93;3.30;;;;;;;-0.91;58.37;98918.69;117780;1205;23071;-62
2021/03/23 00:24:06;;;;;;;8.97;3.30;;;;;;;-0.94;58.39;98916.41;117898;1204;22913;-61
2021/03/23 00:26:34;;;;;;;12.50;4.33;;;;;;;-0.95;58.55;98923.60;117819;1204;23441;-61
2021/03/23 00:29:02;;;;;;;15.50;6.80;;;;;;;-0.96;58.34;98921.13;117927;1207;22951;-62
2021/03/23 00:31:31;;;;;;;25.73;9.27;;;;;;;-0.99;58.51;98919.67;117877;1204;22909;-62
2021/03/23 00:34:03;;;;;;;16.80;6.93;;;;;;;-1.01;58.54;98915.56;117922;1205;22806;-62
2021/03/23 00:36:36;;;;;;;13.95;5.90;;;;;;;-1.04;58.56;98908.77;115606;1206;27943;-61
2021/03/23 00:39:06;;;;;;;20.70;6.40;;;;;;;-1.05;58.31;98908.96;113796;1209;23314;-61
2021/03/23 00:41:35;;;;;;;18.60;7.47;;;;;;;-1.10;58.63;98913.05;117953;1205;22838;-63
2021/03/23 00:44:05;;;;;;;18.03;7.17;;;;;;;-1.11;59.02;98914.06;117685;1205;22910;-63
2021/03/23 00:46:32;;;;;;;14.13;5.67;;;;;;;-1.11;58.88;98915.91;117749;1206;22946;-62
2021/03/23 00:49:00;;;;;;;11.53;5.90;;;;;;;-1.10;59.06;98909.55;117767;1205;22967;-63
2021/03/23 00:51:28;;;;;;;11.33;4.00;;;;;;;-1.09;59.07;98912.02;117906;1205;23495;-63
2021/03/23 00:53:56;;;;;;;11.87;4.70;;;;;;;-1.10;59.08;98913.05;117756;1204;22983;-63
2021/03/23 00:56:24;;;;;;;7.25;3.90;;;;;;;-1.09;59.04;98912.02;118003;1206;22908;-63
2021/03/23 00:58:52;;;;;;;8.90;3.73;;;;;;;-1.07;58.85;98914.50;117639;1209;23710;-63
2021/03/23 01:01:19;;;;;;;7.77;3.07;;;;;;;-1.08;59.40;98915.52;117994;1208;22862;-63
2021/03/23 01:03:48;;;;;;;7.07;3.17;;;;;;;-1.08;59.51;98911.00;117840;1205;22878;-62
2021/03/23 01:06:16;;;;;;;11.87;5.20;;;;;;;-1.08;59.62;98912.84;117841;1206;22826;-62
2021/03/23 01:08:44;;;;;;;7.35;3.00;;;;;;;-1.09;59.33;98914.70;117799;1206;22920;-62
2021/03/23 01:11:11;;;;;;;5.90;2.33;;;;;;;-1.11;59.52;98907.89;117968;1207;23790;-62
2021/03/23 01:13:39;;;;;;;8.23;2.33;;;;;;;-1.14;59.80;98906.44;117913;1206;22970;-62
2021/03/23 01:16:08;;;;;;;3.97;1.63;;;;;;;-1.15;59.49;98910.13;117904;1204;23548;-62
2021/03/23 01:18:36;;;;;;;7.30;2.20;;;;;;;-1.13;59.84;98910.76;117757;1206;22885;-62
2021/03/23 01:21:04;;;;;;;7.40;3.60;;;;;;;-1.12;59.85;98908.91;117844;1205;22903;-62
2021/03/23 01:23:31;;;;;;;9.73;4.33;;;;;;;-1.14;59.77;98911.78;117997;1208;22976;-63
2021/03/23 01:26:00;;;;;;;9.00;4.40;;;;;;;-1.12;59.78;98919.60;117909;1204;22808;-63
2021/03/23 01:28:27;;;;;;;7.63;3.77;;;;;;;-1.15;59.93;98910.13;117943;1205;22901;-62
2021/03/23 01:30:55;;;;;;;7.43;3.57;;;;;;;-1.14;60.29;98913.63;117878;1207;23661;-63
2021/03/23 01:33:23;;;;;;;8.60;3.05;;;;;;;-1.14;60.15;98916.30;114700;1206;24584;-62
2021/03/23 01:35:51;;;;;;;5.63;3.00;;;;;;;-1.16;60.12;98911.18;113851;1208;23124;-63
2021/03/23 01:38:19;;;;;;;10.57;3.67;;;;;;;-1.18;60.25;98915.06;117854;1205;23666;-63
2021/03/23 01:40:48;;;;;;;5.33;2.30;;;;;;;-1.21;60.30;98910.94;117849;1206;22883;-63
2021/03/23 01:43:27;;;;;;;6.97;3.00;;;;;;;-1.21;60.51;98916.28;117912;1205;23621;-60
2021/03/23 01:45:59;;;;;;;10.17;4.83;;;;;;;-1.24;60.52;98913.17;117696;1205;23853;-60
2021/03/23 01:48:32;;;;;;;6.60;3.10;;;;;;;-1.25;60.21;98911.52;117845;1205;23519;-60
2021/03/23 01:51:03;;;;;;;6.33;2.97;;;;;;;-1.30;60.60;98904.11;117762;1207;22879;-61
2021/03/23 01:53:53;;;;;;;7.55;3.15;;;;;;;-1.34;60.90;98913.54;117798;1206;22993;-60
2021/03/23 01:56:21;;;;;;;8.23;4.50;;;;;;;-1.35;60.87;98911.89;117699;1204;22909;-60
2021/03/23 01:58:49;;;;;;;6.30;2.80;;;;;;;-1.35;61.09;98908.39;117794;1206;22968;-61
2021/03/23 02:01:18;;;;;;;4.55;2.60;;;;;;;-1.34;60.87;98908.20;117659;1206;22914;-60
2021/03/23 02:03:46;;;;;;;6.20;3.05;;;;;;;-1.35;60.95;98903.87;117731;1207;22855;-60
2021/03/23 02:06:34;;;;;;;4.77;2.37;;;;;;;-1.44;60.93;98903.19;117734;1206;23593;-61
2021/03/23 02:09:03;;;;;;;9.88;2.55;;;;;;;-1.48;61.19;98903.79;117939;1208;22843;-61
2021/03/23 02:11:30;;;;;;;6.60;2.60;;;;;;;-1.49;61.16;98912.83;117706;1205;22858;-61
2021/03/23 02:13:58;;;;;;;6.90;2.80;;;;;;;-1.50;61.18;98914.67;117804;1204;23706;-61
2021/03/23 02:16:26;;;;;;;5.13;2.20;;;;;;;-1.51;61.44;98905.00;117907;1204;22935;-61
2021/03/23 02:18:54;;;;;;;6.67;3.07;;;;;;;-1.49;61.44;98910.98;118037;1206;22918;-61
2021/03/23 02:21:21;;;;;;;6.03;3.20;;;;;;;-1.50;61.32;98914.67;117843;1208;22853;-61
2021/03/23 02:23:53;;;;;;;8.43;3.23;;;;;;;-1.51;61.67;98907.67;117834;1205;22879;-61
2021/03/23 02:26:26;;;;;;;9.87;3.23;;;;;;;-1.53;61.32;98907.04;117851;1205;23648;-61
2021/03/23 02:28:57;;;;;;;11.33;3.67;;;;;;;-1.54;61.33;98900.05;117862;1205;22833;-61
2021/03/23 02:31:31;;;;;;;7.90;3.80;;;;;;;-1.53;61.67;98911.55;117812;1204;23461;-60
2021/03/23 02:34:01;;;;;;;8.60;3.90;;;;;;;-1.55;61.76;98913.59;117863;1205;22886;-61
2021/03/23 02:36:30;;;;;;;16.63;5.50;;;;;;;-1.58;61.63;98913.98;117851;1205;22889;-59
2021/03/23 02:38:58;;;;;;;13.90;5.45;;;;;;;-1.61;61.91;98915.22;117921;1209;22848;-61
2021/03/23 02:41:26;;;;;;;19.07;6.70;;;;;;;-1.68;61.58;98913.50;117891;1205;22869;-61
2021/03/23 02:43:54;;;;;;;17.80;7.00;;;;;;;-1.77;61.85;98912.02;117750;1205;23581;-61
2021/03/23 02:46:22;;;;;;;16.17;6.93;;;;;;;-1.85;62.25;98921.80;118053;1205;22839;-61
2021/03/23 02:48:50;;;;;;;19.53;7.33;;;;;;;-1.87;62.39;98921.16;117931;1208;23820;-61
2021/03/23 02:51:18;;;;;;;17.30;7.70;;;;;;;-1.88;62.42;98921.38;117902;1208;22863;-61
2021/03/23 02:53:47;;;;;;;16.57;7.37;;;;;;;-1.91;62.26;98916.42;117818;1205;23661;-61
2021/03/23 02:56:15;;;;;;;19.77;8.40;;;;;;;-1.92;62.82;98920.94;117853;1205;22852;-61
2021/03/23 02:58:43;;;;;;;20.77;6.47;;;;;;;-1.92;62.50;98920.11;117786;1206;23721;-61
2021/03/23 03:01:14;;;;;;;20.63;7.63;;;;;;;-1.92;62.94;98926.27;117948;1206;23509;-61
2021/03/23 03:03:41;;;;;;;17.67;6.73;;;;;;;-1.93;62.92;98919.28;117895;1206;22843;-61
2021/03/23 03:06:09;;;;;;;20.30;7.73;;;;;;;-1.95;62.61;98928.49;117970;1205;22829;-61
2021/03/23 03:08:37;;;;;;;17.20;6.77;;;;;;;-1.98;62.52;98919.02;117776;1205;22830;-61
2021/03/23 03:11:06;;;;;;;15.65;5.60;;;;;;;-1.98;63.17;98915.53;117865;1205;22819;-61
2021/03/23 03:13:34;;;;;;;13.17;5.60;;;;;;;-1.98;63.16;98921.69;117743;1206;23482;-61
2021/03/23 03:16:02;;;;;;;11.70;5.13;;;;;;;-2.02;63.18;98920.41;117979;1205;22839;-61
2021/03/23 03:18:31;;;;;;;10.93;4.13;;;;;;;-2.02;63.18;98919.62;117851;1205;25260;-60
2021/03/23 03:20:59;;;;;;;11.77;4.60;;;;;;;-2.04;62.88;98919.81;117956;1206;22832;-60
2021/03/23 03:23:27;;;;;;;11.53;5.40;;;;;;;-2.08;62.91;98925.71;117799;1205;22826;-60
2021/03/23 03:26:00;;;;;;;12.15;4.20;;;;;;;-2.16;63.25;98918.65;117922;1209;22853;-61
2021/03/23 03:28:28;;;;;;;11.87;3.90;;;;;;;-2.23;63.22;98918.60;118058;1205;23034;-61
2021/03/23 03:30:56;;;;;;;9.97;4.37;;;;;;;-2.27;63.40;98919.98;117845;1208;22888;-60
2021/03/23 03:33:25;;;;;;;8.93;4.30;;;;;;;-2.32;63.35;98919.76;117915;1206;23810;-60
2021/03/23 03:35:55;;;;;;;10.30;4.40;;;;;;;-2.37;63.66;98929.34;116571;1209;23148;-63
2021/03/23 03:38:24;;;;;;;12.37;4.60;;;;;;;-2.42;63.85;98929.06;118052;1207;22929;-61
2021/03/23 03:40:57;;;;;;;10.97;4.40;;;;;;;-2.46;63.86;98925.97;117712;1208;22905;-61
2021/03/23 03:43:26;;;;;;;12.93;5.20;;;;;;;-2.45;64.35;98926.80;118008;1208;22871;-61
2021/03/23 03:45:54;;;;;;;9.07;5.23;;;;;;;-2.47;64.08;98931.50;117894;1205;22926;-61
2021/03/23 03:48:23;;;;;;;9.47;4.80;;;;;;;-2.47;64.63;98928.83;117972;1206;23966;-61
2021/03/23 03:50:51;;;;;;;10.03;4.73;;;;;;;-2.46;64.48;98931.31;117892;1206;22998;-61
2021/03/23 03:53:18;;;;;;;11.93;4.83;;;;;;;-2.46;64.32;98931.31;117974;1208;22868;-61
2021/03/23 03:55:46;;;;;;;6.43;3.70;;;;;;;-2.45;64.00;98934.80;117781;1205;22894;-61
2021/03/23 03:58:14;;;;;;;9.60;4.57;;;;;;;-2.45;64.26;98937.47;117948;1204;22900;-61
2021/03/23 04:00:42;;;;;;;11.33;4.30;;;;;;;-2.42;64.20;98937.06;117878;1206;23598;-61
2021/03/23 04:03:24;;;;;;;7.10;3.37;;;;;;;-2.45;64.42;98942.80;117858;1207;22949;-61
2021/03/23 04:05:52;;;;;;;7.75;4.30;;;;;;;-2.45;64.82;98948.94;117827;1205;23349;-61
2021/03/23 04:08:22;;;;;;;7.65;3.60;;;;;;;-2.48;64.39;98936.00;117843;1205;22907;-61
2021/03/23 04:11:05;;;;;;;7.73;3.83;;;;;;;-2.50;64.50;98941.52;117778;1209;22832;-61
2021/03/23 04:13:33;;;;;;;9.30;3.60;;;;;;;-2.52;64.60;98945.39;117863;1208;22838;-60
2021/03/23 04:16:01;;;;;;;9.47;3.93;;;;;;;-2.58;64.81;98957.63;117820;1205;23682;-61
2021/03/23 04:18:29;;;;;;;6.93;3.30;;;;;;;-2.57;64.77;98956.61;118131;1208;22932;-60
2021/03/23 04:20:59;;;;;;;6.87;3.37;;;;;;;-2.56;64.96;98946.77;117745;1206;22921;-60
2021/03/23 04:23:32;;;;;;;6.23;3.97;;;;;;;-2.55;65.03;98949.25;117895;1209;22826;-60
2021/03/23 04:26:00;;;;;;;8.77;3.83;;;;;;;-2.54;64.91;98945.57;117796;1205;23635;-60
2021/03/23 04:28:28;;;;;;;8.43;4.00;;;;;;;-2.51;65.64;98950.53;117891;1205;22816;-61
2021/03/23 04:30:56;;;;;;;6.37;3.20;;;;;;;-2.45;64.94;98948.14;117907;1208;22959;-60
2021/03/23 04:33:25;;;;;;;8.83;3.60;;;;;;;-2.40;65.39;98951.88;117866;1205;22948;-60
2021/03/23 04:35:58;;;;;;;7.47;3.37;;;;;;;-2.35;64.97;98953.98;117862;1204;23729;-61
2021/03/23 04:38:29;;;;;;;6.40;3.40;;;;;;;-2.35;65.54;98945.98;117898;1206;22862;-61
2021/03/23 04:40:58;;;;;;;10.00;4.10;;;;;;;-2.33;64.90;98954.63;117859;1206;22973;-61
2021/03/23 04:43:37;;;;;;;9.50;3.55;;;;;;;-2.31;65.19;98950.73;117911;1206;23591;-61
2021/03/23 04:46:06;;;;;;;12.90;5.10;;;;;;;-2.34;65.19;98939.63;117923;1205;23767;-61
2021/03/23 04:48:33;;;;;;;6.35;3.55;;;;;;;-2.23;65.16;98953.29;117806;1205;22947;-61
2021/03/23 04:51:10;;;;;;;11.53;4.40;;;;;;;-2.15;65.13;98953.15;117967;1208;22857;-61
2021/03/23 04:53:38;;;;;;;10.65;4.20;;;;;;;-2.10;65.05;98955.25;117945;1208;22830;-61
2021/03/23 04:56:06;;;;;;;15.13;4.97;;;;;;;-2.08;65.42;98955.89;118025;1205;23410;-61
2021/03/23 04:58:34;;;;;;;8.65;3.90;;;;;;;-2.04;65.12;98959.84;117959;1208;22885;-61
2021/03/23 05:01:02;;;;;;;9.47;4.23;;;;;;;-2.01;64.80;98958.61;117756;1205;22845;-61
2021/03/23 05:03:32;;;;;;;9.30;3.50;;;;;;;-1.95;64.95;98964.02;117791;1209;22887;-61
2021/03/23 05:06:05;;;;;;;8.80;3.50;;;;;;;-1.91;64.77;98961.80;116158;1206;23131;-62
2021/03/23 05:08:41;;;;;;;10.00;3.90;;;;;;;-1.90;64.43;98958.13;113811;1206;23140;-62
2021/03/23 05:11:11;;;;;;;7.97;2.90;;;;;;;-1.88;64.15;98966.77;117925;1207;23068;-63
2021/03/23 05:13:39;;;;;;;10.47;3.53;;;;;;;-1.90;63.86;98958.95;117677;1205;22830;-64
2021/03/23 05:16:07;;;;;;;6.80;2.90;;;;;;;-1.91;64.17;98961.80;117947;1205;22907;-64
2021/03/23 05:18:35;;;;;;;7.70;3.20;;;;;;;-1.86;64.60;98965.53;117913;1204;23040;-64
2021/03/23 05:21:03;;;;;;;6.83;3.37;;;;;;;-1.76;64.55;98957.22;118071;1208;23497;-64
2021/03/23 05:23:30;;;;;;;9.23;4.20;;;;;;;-1.68;63.69;98964.25;117885;1207;24015;-64
2021/03/23 05:25:58;;;;;;;9.10;3.67;;;;;;;-1.67;63.89;98964.05;117822;1205;22881;-64
2021/03/23 05:28:25;;;;;;;6.27;3.23;;;;;;;-1.67;63.48;98964.05;117778;1205;22968;-64
2021/03/23 05:33:34;;;;;;;12.27;5.30;;;;;;;-1.62;64.11;98966.16;113330;1205;23186;-63
2021/03/23 05:36:02;;;;;;;9.77;3.80;;;;;;;-1.59;63.64;98971.95;117201;1209;23631;-63
2021/03/23 05:38:30;;;;;;;8.63;3.17;;;;;;;-1.54;63.70;98968.67;117212;1207;22922;-63
2021/03/23 05:41:26;;;;;;;12.05;4.95;;;;;;;-1.46;63.13;98971.22;117138;1209;22857;-63
2021/03/23 05:43:56;;;;;;;8.80;3.90;;;;;;;-1.42;63.13;98970.61;117014;1215;22921;-64
2021/03/23 05:46:34;;;;;;;8.43;3.73;;;;;;;-1.36;62.98;98971.69;117140;1212;22919;-64
2021/03/23 05:49:11;;;;;;;10.55;4.60;;;;;;;-1.32;62.81;98970.28;117074;1209;23755;-64
2021/03/23 05:51:40;;;;;;;8.18;4.40;;;;;;;-1.28;62.30;98974.20;117218;1212;22859;-63
2021/03/23 05:54:38;;;;;;;13.07;3.47;;;;;;;-1.26;62.49;98972.16;117171;1213;22994;-64
2021/03/23 05:57:12;;;;;;;7.90;4.73;;;;;;;-1.26;62.18;98968.66;117209;1212;22819;-63
2021/03/23 06:00:05;;;;;;;8.20;5.03;;;;;;;-1.25;62.00;98963.13;117070;1209;22919;-64
2021/03/23 06:02:49;;;;;;;11.00;3.60;;;;;;;-1.17;61.50;98971.00;117187;1209;25991;-64
2021/03/23 06:05:38;;;;;;;10.03;4.67;;;;;;;-1.13;61.63;98961.55;117066;1211;22882;-64
2021/03/23 06:08:26;;;;;;;13.33;4.00;;;;;;;-1.07;60.78;98967.97;117166;1215;22852;-64
2021/03/23 06:11:19;;;;;;;16.47;4.90;;;;;;;-1.08;60.89;98975.16;117019;1210;24109;-64
2021/03/23 06:13:51;;;;;;;12.30;3.70;;;;;;;-1.02;61.54;98967.38;117178;1214;22926;-64
2021/03/23 06:16:32;;;;;;;7.60;3.75;;;;;;;-0.90;61.46;98969.30;117105;1209;22986;-64
2021/03/23 06:19:22;;;;;;;197.47;70.53;;;;;;;-0.80;60.95;98980.45;117179;1209;24004;-64
2021/03/23 06:22:10;;;;;;;47.57;15.40;;;;;;;-0.69;60.36;98973.70;117056;1215;22851;-64
2021/03/23 06:24:56;;;;;;;77.63;26.93;;;;;;;-0.60;59.40;98985.07;117155;1209;22938;-64
2021/03/23 06:27:33;;;;;;;37.03;15.47;;;;;;;-0.50;57.84;98983.66;117103;1213;22931;-64
2021/03/23 06:30:25;;;;;;;44.83;19.05;;;;;;;-0.43;58.37;98984.50;117097;1209;22905;-64
2021/03/23 06:32:56;;;;;;;22.77;8.13;;;;;;;-0.28;57.93;98980.84;117129;1209;22853;-64
2021/03/23 06:35:30;;;;;;;12.83;6.83;;;;;;;-0.16;57.79;98992.64;117184;1215;23365;-64
2021/03/23 06:38:04;;;;;;;9.90;3.15;;;;;;;-0.08;56.14;98992.44;117052;1209;23895;-64
2021/03/23 06:40:34;;;;;;;12.40;4.85;;;;;;;-0.08;55.77;98997.79;117162;1209;22933;-64
2021/03/23 06:43:29;;;;;;;18.20;8.40;;;;;;;-0.09;56.18;99002.32;117053;1209;22883;-64
2021/03/23 06:46:22;;;;;;;10.15;4.25;;;;;;;0.01;56.16;99004.59;115919;1209;23142;-61
2021/03/23 06:49:13;;;;;;;14.70;6.87;;;;;;;0.09;54.64;99001.75;117192;1209;22928;-61
2021/03/23 06:51:53;;;;;;;40.40;16.75;;;;;;;0.13;53.96;99005.67;117138;1209;22922;-62
2021/03/23 06:54:24;;;;;;;27.40;11.07;;;;;;;0.12;53.63;99003.20;117188;1209;23546;-62
2021/03/23 06:57:00;;;;;;;18.03;5.73;;;;;;;0.10;53.93;99003.39;117120;1209;22875;-61
2021/03/23 06:59:28;;;;;;;18.63;8.57;;;;;;;0.14;54.19;99001.97;117247;1209;23012;-62
2021/03/23 07:02:01;;;;;;;10.53;3.47;;;;;;;0.15;53.71;99003.59;117124;1209;22822;-62
2021/03/23 07:04:40;;;;;;;25.70;11.15;;;;;;;0.14;52.68;98999.30;116956;1212;22854;-62
2021/03/23 07:07:28;;;;;;;6.37;3.33;;;;;;;0.19;51.33;99010.20;117162;1213;22930;-62
2021/03/23 07:09:57;;;;;;;31.70;14.90;;;;;;;0.21;51.55;99007.32;117021;1211;22899;-62
2021/03/23 07:12:39;;;;;;;12.13;5.00;;;;;;;0.25;50.28;99000.53;117096;1213;22970;-62
2021/03/23 07:15:11;;;;;;;4.45;1.70;;;;;;;0.29;50.87;98999.90;117145;1209;22878;-57
2021/03/23 07:17:46;;;;;;;5.25;2.55;;;;;;;0.30;51.18;98995.36;117108;1215;22805;-64
2021/03/23 07:20:33;;;;;;;4.77;1.60;;;;;;;0.29;49.63;99009.79;117121;1209;22868;-64
2021/03/23 07:23:02;;;;;;;22.83;10.27;;;;;;;0.32;49.76;98999.50;117129;1209;22951;-64
2021/03/23 07:25:39;;;;;;;7.03;2.60;;;;;;;0.40;50.27;98994.98;117230;1209;22839;-64
2021/03/23 07:28:45;;;;;;;6.73;2.43;;;;;;;0.40;51.49;98984.27;117120;1215;23101;-64
2021/03/23 07:31:27;;;;;;;7.90;3.00;;;;;;;0.46;49.63;98989.61;116779;1218;23853;-64
2021/03/23 07:34:02;;;;;;;4.03;1.57;;;;;;;0.56;48.66;98990.04;116554;1215;22845;-64
2021/03/23 07:36:42;;;;;;;20.85;7.65;;;;;;;0.68;48.05;98995.59;116873;1214;22933;-64
2021/03/23 07:39:24;;;;;;;8.27;1.97;;;;;;;0.77;47.07;98988.98;116780;1215;23018;-64
2021/03/23 07:41:57;;;;;;;4.50;1.50;;;;;;;0.82;45.93;98986.51;116842;1214;22890;-64
2021/03/23 07:44:46;;;;;;;11.15;5.05;;;;;;;0.85;45.43;98988.78;116741;1216;23748;-64
2021/03/23 07:47:21;;;;;;;7.80;3.40;;;;;;;0.91;45.38;99000.51;113273;1215;23268;-63
2021/03/23 07:49:56;;;;;;;15.40;7.40;;;;;;;0.95;44.72;98980.30;116788;1215;22918;-64
2021/03/23 07:52:30;;;;;;;7.37;3.00;;;;;;;0.98;42.78;98991.44;116775;1218;22897;-64
2021/03/23 07:54:59;;;;;;;33.50;11.50;;;;;;;1.01;43.71;98980.27;116706;1213;22918;-64
2021/03/23 07:57:42;;;;;;;19.60;6.40;;;;;;;1.03;43.23;98980.05;116784;1218;22927;-64
2021/03/23 08:00:14;;;;;;;19.85;6.35;;;;;;;1.06;42.86;98974.27;116743;1213;22955;-64
2021/03/23 08:03:18;;;;;;;23.40;7.00;;;;;;;1.13;43.86;98974.27;117158;1210;22836;-64
2021/03/23 08:06:02;;;;;;;24.80;8.55;;;;;;;1.24;43.03;98979.80;117138;1212;23107;-64
2021/03/23 08:08:42;;;;;;;40.47;12.30;;;;;;;1.36;42.35;98972.73;116929;1212;22988;-64
2021/03/23 08:11:18;;;;;;;15.80;4.83;;;;;;;1.38;41.36;98978.73;117104;1210;24010;-63
2021/03/23 08:14:05;;;;;;;17.67;5.50;;;;;;;1.33;40.76;98975.02;117214;1209;22876;-64
2021/03/23 08:16:43;;;;;;;16.70;5.55;;;;;;;1.29;41.32;98981.87;117102;1209;22859;-64
2021/03/23 08:19:37;;;;;;;10.80;2.80;;;;;;;1.29;40.32;98995.28;117206;1212;22968;-64
2021/03/23 08:22:31;;;;;;;12.50;4.25;;;;;;;1.31;40.87;98977.08;117051;1214;22847;-64
2021/03/23 08:25:08;;;;;;;17.23;5.77;;;;;;;1.34;41.29;98972.13;117203;1210;22983;-64
2021/03/23 08:28:11;;;;;;;12.93;3.93;;;;;;;1.36;41.42;98979.97;117212;1209;22962;-63
2021/03/23 08:31:27;;;;;;;16.90;5.65;;;;;;;1.40;41.57;98983.88;117093;1210;22914;-64
2021/03/23 08:34:04;;;;;;;19.30;6.10;;;;;;;1.44;41.01;98993.17;117177;1215;22862;-64
2021/03/23 08:37:17;;;;;;;17.63;5.45;;;;;;;1.47;41.18;98981.98;117104;1212;22990;-64
2021/03/23 08:40:16;;;;;;;3.83;1.43;;;;;;;1.45;40.75;98981.37;116826;1212;22862;-64
2021/03/23 08:42:46;;;;;;;19.15;5.95;;;;;;;1.45;41.42;98993.96;116761;1215;23256;-64
2021/03/23 08:45:22;;;;;;;25.80;7.70;;;;;;;1.44;41.17;98970.88;116793;1216;23963;-64
2021/03/23 08:47:55;;;;;;;4.50;1.80;;;;;;;1.45;40.88;98978.69;116697;1218;23652;-64
2021/03/23 08:50:44;;;;;;;6.47;1.70;;;;;;;1.51;39.76;98975.16;116838;1212;23537;-65
2021/03/23 08:53:34;;;;;;;18.50;5.65;;;;;;;1.57;40.68;98979.69;116780;1217;22942;-65
2021/03/23 08:56:03;;;;;;;7.20;2.30;;;;;;;1.58;40.31;98988.57;116927;1212;22959;-64
2021/03/23 08:58:50;;;;;;;12.23;2.97;;;;;;;1.57;40.05;98982.38;116818;1212;22853;-64
2021/03/23 09:01:38;;;;;;;;;;;;;;;1.57;39.77;98971.63;116895;1220;22992;-64
2021/03/23 09:04:09;;;;;;;13.75;4.95;;;;;;;1.56;39.53;98975.36;116882;1212;21499;-64
2021/03/23 09:06:50;;;;;;;10.60;2.50;;;;;;;1.55;39.74;98981.76;116819;1215;23411;-64
2021/03/23 09:09:31;;;;;;;25.20;8.90;;;;;;;1.60;39.61;98973.87;116765;1212;22928;-64
2021/03/23 09:12:33;;;;;;;11.90;4.27;;;;;;;1.58;39.09;98970.60;117144;1209;22889;-64
2021/03/23 09:18:26;;;;;;;23.20;6.75;;;;;;;1.64;40.13;98969.73;117162;1209;22814;-64
2021/03/23 09:21:09;;;;;;;16.60;6.25;;;;;;;1.71;39.89;98962.48;117233;1209;22858;-63
2021/03/23 09:23:37;;;;;;;5.13;1.73;;;;;;;1.82;39.00;98947.53;117168;1209;23006;-63
2021/03/23 09:26:30;;;;;;;2.20;1.10;;;;;;;1.87;39.42;98947.72;117218;1212;23658;-63
2021/03/23 09:29:24;;;;;;;17.00;5.17;;;;;;;1.87;41.04;98949.59;117163;1209;22892;-63
2021/03/23 09:31:52;;;;;;;23.03;6.17;;;;;;;1.88;39.57;98948.52;117254;1209;22880;-63
2021/03/23 09:35:11;;;;;;;19.65;6.15;;;;;;;1.88;40.82;98962.77;117188;1209;22849;-62
2021/03/23 09:37:59;;;;;;;3.90;1.20;;;;;;;1.95;40.00;98952.83;116917;1213;22982;-64
2021/03/23 09:40:34;;;;;;;13.70;4.95;;;;;;;1.97;41.25;98939.18;116856;1215;23668;-64
2021/03/23 09:43:20;;;;;;;23.27;7.67;;;;;;;2.02;40.92;98937.47;116828;1215;22851;-63
2021/03/23 09:45:48;;;;;;;6.60;2.60;;;;;;;2.10;39.86;98941.77;116912;1214;22886;-64
2021/03/23 09:48:16;;;;;;;6.45;1.70;;;;;;;2.13;38.30;98950.23;116816;1213;22876;-64
2021/03/23 09:50:53;;;;;;;13.30;4.30;;;;;;;2.14;38.63;98956.42;116831;1215;22846;-64
2021/03/23 09:53:36;;;;;;;14.00;4.30;;;;;;;2.15;39.23;98944.64;116855;1218;22889;-64
2021/03/23 09:56:12;;;;;;;14.25;3.60;;;;;;;2.13;39.80;98938.66;116798;1212;22907;-63
2021/03/23 09:58:40;;;;;;;24.45;6.65;;;;;;;2.11;37.01;98946.11;116835;1215;23276;-63
2021/03/23 10:01:21;;;;;;;11.95;4.00;;;;;;;2.04;37.01;98934.56;116807;1213;22952;-64
2021/03/23 10:03:51;;;;;;;19.50;6.00;;;;;;;1.98;38.89;98936.28;116757;1217;23006;-64
2021/03/23 10:06:21;;;;;;;53.60;16.50;;;;;;;2.00;38.81;98941.44;116825;1215;22905;-64
2021/03/23 10:09:09;;;;;;;46.10;10.55;;;;;;;2.00;39.74;98942.27;116805;1214;22892;-64
2021/03/23 10:11:42;;;;;;;30.95;9.90;;;;;;;1.93;40.03;98933.41;116924;1212;22926;-64
2021/03/23 10:14:11;;;;;;;28.40;10.00;;;;;;;1.91;40.69;98934.66;116996;1209;23953;-63
2021/03/23 10:16:40;;;;;;;6.27;1.87;;;;;;;1.91;40.78;98926.60;117180;1209;22844;-64
2021/03/23 10:19:20;;;;;;;6.53;2.60;;;;;;;1.88;41.22;98935.09;117250;1209;22836;-63
2021/03/23 10:22:09;;;;;;;16.23;4.50;;;;;;;1.83;41.87;98937.62;117290;1209;22846;-63
2021/03/23 10:24:38;;;;;;;4.05;1.60;;;;;;;1.81;40.96;98937.00;117248;1209;23955;-63
2021/03/23 10:27:17;;;;;;;9.15;3.05;;;;;;;1.84;39.75;98929.34;117161;1209;23459;-64
2021/03/23 10:30:09;;;;;;;17.30;6.00;;;;;;;1.84;39.43;98939.27;117239;1214;22851;-64
2021/03/23 10:32:50;;;;;;;10.05;4.15;;;;;;;1.81;39.71;98937.83;117214;1209;23144;-64
2021/03/23 10:35:28;;;;;;;4.70;1.90;;;;;;;1.85;38.12;98935.55;116905;1213;22942;-63
2021/03/23 10:38:17;;;;;;;3.67;1.30;;;;;;;1.89;38.66;98931.36;117229;1209;22869;-64
2021/03/23 10:40:47;;;;;;;6.13;2.67;;;;;;;1.83;40.90;98943.81;117103;1209;23615;-64
2021/03/23 10:43:32;;;;;;;3.50;1.63;;;;;;;1.76;41.57;98946.52;117205;1215;22905;-64
2021/03/23 10:46:32;;;;;;;2.90;1.40;;;;;;;1.75;42.38;98938.68;117096;1209;23949;-63
2021/03/23 10:49:20;;;;;;;2.00;1.00;;;;;;;1.85;43.14;98940.91;116878;1212;22971;-63
2021/03/23 10:51:50;;;;;;;14.40;6.07;;;;;;;1.95;42.67;98946.63;116828;1212;23847;-64
2021/03/23 10:54:20;;;;;;;29.05;7.95;;;;;;;2.00;43.01;98939.58;116734;1217;23691;-64
2021/03/23 10:56:56;;;;;;;53.97;11.63;;;;;;;2.05;41.65;98941.59;116729;1213;22902;-63
2021/03/23 10:59:25;;;;;;;9.90;2.50;;;;;;;2.06;41.78;98949.44;116836;1218;23038;-64
2021/03/23 11:02:05;;;;;;;7.70;2.40;;;;;;;1.98;41.54;98944.34;116817;1212;22886;-64
2021/03/23 11:04:36;;;;;;;5.53;1.57;;;;;;;1.91;43.18;98942.72;116928;1212;22867;-65
2021/03/23 11:07:19;;;;;;;6.70;2.10;;;;;;;1.85;43.65;98943.60;116726;1216;23060;-64
2021/03/23 11:09:52;;;;;;;4.47;1.23;;;;;;;1.80;43.64;98946.92;116839;1218;23003;-64
2021/03/23 11:12:20;;;;;;;12.57;3.97;;;;;;;1.78;45.59;98957.88;116826;1212;22890;-64
2021/03/23 11:14:49;;;;;;;2.75;1.50;;;;;;;1.78;45.49;98939.08;116919;1212;22902;-64
2021/03/23 11:17:19;;;;;;;5.93;1.70;;;;;;;1.76;45.67;98943.02;116814;1212;22959;-64
2021/03/23 11:19:52;;;;;;;3.10;1.70;;;;;;;1.73;47.33;98949.63;116824;1216;22920;-63
2021/03/23 11:22:30;;;;;;;5.70;2.07;;;;;;;1.75;46.76;98944.88;116737;1213;23103;-64
2021/03/23 11:24:58;;;;;;;6.40;1.60;;;;;;;1.90;45.42;98951.81;116844;1212;22943;-64
2021/03/23 11:27:28;;;;;;;6.75;2.45;;;;;;;2.04;43.95;98961.44;117159;1209;22851;-64
2021/03/23 11:29:58;;;;;;;11.75;2.85;;;;;;;2.00;44.22;98971.81;113823;1215;23189;-67
2021/03/23 11:32:27;;;;;;;31.30;10.90;;;;;;;1.95;45.40;98960.06;117139;1209;23549;-64
2021/03/23 11:34:55;;;;;;;7.87;2.00;;;;;;;1.88;46.43;98957.40;117220;1211;23246;-64
2021/03/23 11:37:23;;;;;;;7.40;1.30;;;;;;;1.84;47.57;98966.95;117209;1212;23384;-64
2021/03/23 11:40:01;;;;;;;3.20;1.50;;;;;;;1.79;47.41;98982.88;117226;1209;22995;-64
2021/03/23 11:42:36;;;;;;;3.15;1.30;;;;;;;1.71;47.60;98985.82;117255;1209;22947;-63
2021/03/23 11:45:32;;;;;;;5.65;2.30;;;;;;;1.55;48.52;98979.08;117120;1209;22879;-64
2021/03/23 11:48:04;;;;;;;8.45;3.15;;;;;;;1.44;48.79;98976.23;116984;1214;22862;-63
2021/03/23 11:50:33;;;;;;;5.13;1.33;;;;;;;1.38;49.71;98972.53;116940;1212;22940;-63
2021/03/23 11:53:00;;;;;;;15.40;6.50;;;;;;;1.40;49.68;98967.78;116923;1215;22944;-63
2021/03/23 11:55:35;;;;;;;9.10;3.55;;;;;;;1.37;48.63;98963.66;116963;1212;22891;-63
2021/03/23 11:58:04;;;;;;;6.93;3.27;;;;;;;1.33;48.45;98975.02;117016;1215;22978;-63
2021/03/23 12:00:32;;;;;;;13.40;6.05;;;;;;;1.26;47.95;98966.18;116714;1212;23117;-63
2021/03/23 12:03:00;;;;;;;18.47;6.40;;;;;;;1.19;48.36;98974.23;116910;1212;22852;-62
2021/03/23 12:05:31;;;;;;;2.55;1.20;;;;;;;1.21;49.59;98969.48;117006;1215;22977;-63